Ewa Beach, HI (96706)

10:08 AM HST on December 17, 2014 (GMT -1000)
Ewa | Change Station
CLOSE
Current Station
Personal Weather Station
Location: Ewa Beach, HI
Elevation: 46 ft
Nearby Weather Stations

Elev 46 ft 21.34 °N, 158.03 °W | Updated 54 minutes ago

Partly Cloudy
Partly Cloudy
77.7 °F
Feels Like 80 °F
N
2.7
Wind Variable Wind from NE
Gusts 4.9 mph

Today
High -- | Low -- °F
--% Chance of Precip.
Yesterday
High -- | Low -- °F
Precip. -- in
7:03 AM 5:53 PM
Waning Crescent, 20% visible
Pressure 30.20 in
Visibility 10.0 miles
Clouds Few 200 ft
Heat Index 80 °F
Dew Point 68 °F
Humidity 72%
Rainfall -999.00 in
Snow Depth Not available.
UV 3 out of 12
Pollen Not available.
Air Quality Not available.
Flu Activity Not available.
METAR PHJR 171953Z 08006KT 10SM FEW002 26/19 A3018 RMK AO2 SLP227 T02610194

More Conditions Fewer Conditions

Pressure 30.20 in
Visibility 10.0 miles
Clouds Few 200 ft
Heat Index 80 °F
Dew Point 68 °F
Humidity 72%
Rainfall -999.00 in
Snow Depth Not available.
UV 3 out of 12
Pollen Not available.
Air Quality Not available.
Flu Activity Not available.
METAR PHJR 171953Z 08006KT 10SM FEW002 26/19 A3018 RMK AO2 SLP227 T02610194

More Conditions Fewer Conditions

10-Day Weather Forecast

Almanac

Astronomy

Dec. 17, 2014 Rise Set
Actual Time
Civil Twilight
Nautical Twilight
Astronomical Twilight
Moon
Length of Visible Light
Length of Day
Tomorrow will be .
, % of the Moon is Illuminated

Today's Extremes

State Highs State Lows

Community

WunderPhotos

Upload Photos

1,778,802 photos uploaded!

WunderBlogs® & News

Nearby

Air Quality

  Air Quality AQ Index Pollutant
Not available.

Snow Depth

Station Depth Elevation

Earthquake Activity

City Distance Mag. Time & Date
Minimum magnitude displayed is 2.5.

Coastal Water Temperatures

Place Temperature

Nearby Weather Stations